CheckWX is a tool to help pilots better visualize weather data.  It is not intended as a substitute for an official pre-flight weather briefing.

18:22:45 UTC

GCGM METAR
La Gomera Airport
Alajero, La Gomera Island, Spain
Current

23 mins ago

GCGM 241800Z AUTO VRB04KT 9999 FEW031 18/12 Q1019 RMK R09/13003KT 080V160 ARP/VRB03KT
Observed
Apr-24 @ 18:00 UTC
Wind
  • Variable at 4 KTS
Visibility
10,000+ meters
Flight Rules
VFR
Cloud Levels
  • Few at 3,100' AGL
Temperature
18°C / 64°F
Dewpoint
12°C / 54°F
Humidity
68%
Altimeter
30.09" Hg
Pressure
1018.92 hPa
Previous

53 mins ago

GCGM 241730Z AUTO 10005KT 060V150 9999 SCT031 19/12 Q1019 RMK R09/VRB05KT ARP/12005KT 070V190
Observed
Apr-24 @ 17:30 UTC
Wind
  • 100° at 5 KTS
Visibility
10,000+ meters
Flight Rules
VFR
Cloud Levels
  • Scattered at 3,100' AGL
Temperature
19°C / 66°F
Dewpoint
12°C / 54°F
Humidity
64%
Altimeter
30.09" Hg
Pressure
1018.92 hPa
Previous

1 hour ago

GCGM 241700Z 12005KT 080V170 9999 SCT031 19/13 Q1019 RMK R09/VRB05KT ARP/12006KT 070V190
Observed
Apr-24 @ 17:00 UTC
Wind
  • 120° at 5 KTS
Visibility
10,000+ meters
Flight Rules
VFR
Cloud Levels
  • Scattered at 3,100' AGL
Temperature
19°C / 66°F
Dewpoint
13°C / 55°F
Humidity
68%
Altimeter
30.09" Hg
Pressure
1018.92 hPa